createdAt,value
2023-04-06T03:01:16.439Z,70.90
2023-04-06T03:03:45.746Z,70.80
2023-04-06T03:06:21.700Z,71.60
2023-04-06T03:08:53.389Z,72.10
2023-04-06T03:11:22.336Z,72.40
2023-04-06T03:13:52.433Z,72.70
2023-04-06T03:16:21.853Z,72.60
2023-04-06T03:18:50.341Z,72.50
2023-04-06T03:21:18.336Z,73.10
2023-04-06T03:23:52.310Z,73.20
2023-04-06T03:26:20.366Z,72.90
2023-04-06T03:28:48.317Z,73.20
2023-04-06T03:31:19.120Z,73.40
2023-04-06T03:33:55.921Z,73.50
2023-04-06T03:36:28.090Z,73.20
2023-04-06T03:38:58.142Z,73.80
2023-04-06T03:41:27.717Z,73.90
2023-04-06T03:44:07.841Z,74.20
2023-04-06T03:46:39.840Z,74.70
2023-04-06T03:49:09.251Z,75.00
2023-04-06T03:51:37.355Z,75.00
2023-04-06T03:54:05.599Z,74.80
2023-04-06T03:56:33.517Z,74.70
2023-04-06T03:59:02.732Z,74.50
2023-04-06T04:01:30.693Z,74.50
2023-04-06T04:03:58.651Z,75.00
2023-04-06T04:06:27.985Z,74.20
2023-04-06T04:08:57.947Z,74.20
2023-04-06T04:11:25.775Z,74.70
2023-04-06T04:13:59.054Z,74.90
2023-04-06T04:16:26.973Z,74.90
2023-04-06T04:18:54.918Z,74.50
2023-04-06T04:21:31.648Z,74.80
2023-04-06T04:24:01.958Z,74.80
2023-04-06T04:26:31.865Z,75.00
2023-04-06T04:28:59.733Z,74.80
2023-04-06T04:31:28.662Z,74.80
2023-04-06T04:34:02.650Z,74.90
2023-04-06T04:36:37.006Z,74.70
2023-04-06T04:39:09.301Z,74.30
2023-04-06T04:41:42.149Z,74.30
2023-04-06T04:44:12.858Z,74.50
2023-04-06T04:46:42.391Z,75.10
2023-04-06T04:49:12.964Z,75.20
2023-04-06T04:51:43.710Z,75.90
2023-04-06T04:54:20.994Z,75.70
2023-04-06T04:56:48.858Z,75.30
2023-04-06T04:59:45.923Z,75.60
2023-04-06T05:02:19.610Z,75.80
2023-04-06T05:04:59.013Z,75.90
2023-04-06T05:07:30.023Z,75.80
2023-04-06T05:10:00.348Z,76.50
2023-04-06T05:12:31.769Z,75.80
2023-04-06T05:15:12.728Z,75.40
2023-04-06T05:17:41.032Z,75.30
2023-04-06T05:20:13.213Z,75.40
2023-04-06T05:22:49.007Z,75.30
2023-04-06T05:25:17.456Z,75.60
2023-04-06T05:27:47.226Z,75.50
2023-04-06T05:30:41.416Z,76.10
2023-04-06T05:33:11.939Z,76.40
2023-04-06T05:35:57.176Z,76.40
2023-04-06T05:38:26.742Z,76.40
2023-04-06T05:40:57.109Z,77.00
2023-04-06T05:43:31.416Z,77.20
2023-04-06T05:46:01.350Z,77.00
2023-04-06T05:48:31.310Z,76.90
2023-04-06T05:51:01.889Z,76.70
2023-04-06T05:53:42.992Z,76.70
2023-04-06T05:56:17.421Z,76.70
2023-04-06T05:58:45.917Z,77.20
2023-04-06T06:01:17.262Z,76.90
2023-04-06T06:03:48.039Z,76.80
2023-04-06T06:06:16.676Z,76.50
2023-04-06T06:09:00.025Z,76.50
2023-04-06T06:11:28.006Z,76.30
2023-04-06T06:14:00.145Z,76.00
2023-04-06T06:16:28.350Z,76.30
2023-04-06T06:18:56.570Z,76.20
2023-04-06T06:21:24.617Z,75.90
2023-04-06T06:23:59.381Z,76.20
2023-04-06T06:26:33.588Z,76.50
2023-04-06T06:29:07.194Z,76.60
2023-04-06T06:31:37.884Z,76.70
2023-04-06T06:34:09.929Z,76.60
2023-04-06T06:36:40.006Z,76.70
2023-04-06T06:39:12.152Z,76.90
2023-04-06T06:41:41.202Z,77.20
2023-04-06T06:44:10.579Z,77.50
2023-04-06T06:46:45.715Z,78.10
2023-04-06T06:49:15.144Z,78.40
2023-04-06T06:51:43.002Z,78.90
2023-04-06T06:54:12.399Z,78.80
2023-04-06T06:56:40.344Z,79.00
2023-04-06T06:59:09.457Z,78.70
2023-04-06T07:01:47.600Z,78.30
2023-04-06T07:04:41.084Z,77.60
2023-04-06T07:07:09.365Z,77.00
2023-04-06T07:09:38.641Z,77.00
2023-04-06T07:12:08.541Z,77.00
2023-04-06T07:14:38.586Z,76.50
2023-04-06T07:17:07.699Z,76.00
2023-04-06T07:20:01.023Z,76.10
2023-04-06T07:22:28.836Z,76.40
2023-04-06T07:24:59.001Z,76.10
2023-04-06T07:27:28.140Z,74.50
2023-04-06T07:29:56.594Z,74.40
2023-04-06T07:32:27.353Z,74.20
2023-04-06T07:34:58.111Z,73.90
2023-04-06T07:37:30.688Z,72.90
2023-04-06T07:40:01.904Z,72.70
2023-04-06T07:42:34.889Z,72.20
2023-04-06T07:45:06.953Z,71.70
2023-04-06T07:47:47.492Z,71.10
2023-04-06T07:50:18.016Z,71.10
2023-04-06T07:53:01.484Z,70.50
2023-04-06T07:55:31.654Z,69.90
2023-04-06T07:57:59.755Z,69.90
2023-04-06T08:00:32.337Z,69.80
2023-04-06T08:03:00.392Z,69.10
2023-04-06T08:05:28.450Z,68.60
2023-04-06T08:07:56.302Z,68.90
2023-04-06T08:10:24.167Z,68.80
2023-04-06T08:12:53.925Z,69.40
2023-04-06T08:15:21.966Z,68.40
2023-04-06T08:17:50.198Z,67.90
2023-04-06T08:20:19.219Z,67.90
2023-04-06T08:22:53.857Z,68.30
2023-04-06T08:25:26.130Z,68.10
2023-04-06T08:27:55.307Z,68.40
2023-04-06T08:30:23.324Z,67.40
2023-04-06T08:32:55.376Z,67.10
2023-04-06T08:35:23.500Z,67.50
2023-04-06T08:38:01.226Z,67.00
2023-04-06T08:40:29.503Z,66.50
2023-04-06T08:43:02.964Z,66.20
2023-04-06T08:45:31.259Z,66.20
2023-04-06T08:48:02.726Z,66.20
2023-04-06T08:50:32.000Z,66.60
2023-04-06T08:53:02.949Z,66.10
2023-04-06T08:55:32.373Z,65.00
2023-04-06T08:58:04.549Z,64.10
2023-04-06T09:00:32.814Z,63.60
2023-04-06T09:03:01.423Z,62.50
2023-04-06T09:05:30.769Z,62.00
2023-04-06T09:08:02.744Z,61.70
2023-04-06T09:10:31.450Z,61.00
2023-04-06T09:13:07.637Z,60.90
2023-04-06T09:15:37.067Z,60.40
2023-04-06T09:18:04.969Z,61.00
2023-04-06T09:20:33.054Z,60.60
2023-04-06T09:23:00.979Z,60.10
2023-04-06T09:25:29.033Z,60.00
2023-04-06T09:28:03.989Z,59.50
2023-04-06T09:30:33.359Z,59.50
2023-04-06T09:33:01.398Z,59.40
2023-04-06T09:35:31.295Z,58.80
2023-04-06T09:37:59.215Z,59.00
2023-04-06T09:40:27.165Z,58.80
2023-04-06T09:42:58.287Z,57.70
2023-04-06T09:45:26.992Z,57.50
2023-04-06T09:47:57.449Z,57.00
2023-04-06T09:50:27.339Z,56.20
2023-04-06T09:52:57.993Z,55.90
2023-04-06T09:55:32.417Z,56.00
2023-04-06T09:58:06.025Z,55.10
2023-04-06T10:00:36.579Z,55.00
2023-04-06T10:03:16.678Z,55.10
2023-04-06T10:05:48.416Z,54.50
2023-04-06T10:08:17.128Z,53.80
2023-04-06T10:10:45.333Z,53.80
2023-04-06T10:13:13.866Z,53.50
2023-04-06T10:15:41.998Z,53.10
2023-04-06T10:18:11.410Z,52.60
2023-04-06T10:20:43.982Z,52.60
2023-04-06T10:23:17.086Z,52.60
2023-04-06T10:25:55.029Z,52.80
2023-04-06T10:28:23.295Z,52.70
2023-04-06T10:30:51.404Z,52.20
2023-04-06T10:33:22.110Z,51.90
2023-04-06T10:35:50.197Z,52.10
2023-04-06T10:38:22.655Z,52.10
2023-04-06T10:40:50.810Z,51.90
2023-04-06T10:43:22.755Z,52.10
2023-04-06T10:45:58.327Z,51.70
2023-04-06T10:48:37.833Z,51.90
2023-04-06T10:51:10.267Z,51.30
2023-04-06T10:53:38.130Z,50.80
2023-04-06T10:56:11.142Z,51.90
2023-04-06T10:58:39.195Z,52.10
2023-04-06T11:01:07.490Z,51.20
2023-04-06T11:03:45.565Z,50.10
2023-04-06T11:06:20.139Z,51.30
2023-04-06T11:08:48.109Z,51.70
2023-04-06T11:11:19.157Z,51.60
2023-04-06T11:13:50.990Z,52.10
2023-04-06T11:16:20.441Z,51.30
2023-04-06T11:18:55.004Z,51.90
2023-04-06T11:21:36.270Z,51.60
2023-04-06T11:24:08.936Z,51.80
2023-04-06T11:26:41.432Z,51.70
2023-04-06T11:29:09.737Z,52.60
2023-04-06T11:31:44.312Z,52.40
2023-04-06T11:34:14.748Z,53.10
2023-04-06T11:36:43.982Z,53.20
2023-04-06T11:39:12.260Z,52.80
2023-04-06T11:41:40.398Z,52.20
2023-04-06T11:44:08.631Z,52.10
2023-04-06T11:46:36.586Z,52.10
2023-04-06T11:49:04.799Z,51.50
2023-04-06T11:51:37.993Z,52.80
2023-04-06T11:54:05.931Z,51.20
2023-04-06T11:56:33.836Z,49.60
2023-04-06T11:59:01.690Z,50.00
2023-04-06T12:01:30.875Z,49.60
2023-04-06T12:03:59.482Z,49.50
2023-04-06T12:06:27.529Z,48.60
2023-04-06T12:08:56.767Z,47.50
2023-04-06T12:11:24.668Z,48.10
2023-04-06T12:13:52.486Z,48.10
2023-04-06T12:16:21.234Z,48.00
2023-04-06T12:18:49.342Z,48.50
2023-04-06T12:21:17.209Z,48.00
2023-04-06T12:23:45.083Z,48.10
2023-04-06T12:26:14.294Z,47.90
2023-04-06T12:28:42.137Z,47.50
2023-04-06T12:31:16.073Z,47.40
2023-04-06T12:33:45.793Z,48.40
2023-04-06T12:36:14.664Z,49.10
2023-04-06T12:38:42.894Z,48.50
2023-04-06T12:41:10.925Z,47.80
2023-04-06T12:43:41.176Z,48.00
2023-04-06T12:46:09.169Z,47.80
2023-04-06T12:48:37.419Z,47.40
2023-04-06T12:51:07.031Z,48.00
2023-04-06T12:53:36.381Z,48.40
2023-04-06T12:56:12.185Z,47.60
2023-04-06T12:58:42.755Z,47.50
2023-04-06T13:01:11.742Z,47.70
2023-04-06T13:03:39.673Z,48.70
2023-04-06T13:06:09.201Z,48.10
2023-04-06T13:08:38.116Z,48.40
2023-04-06T13:11:09.006Z,46.80
2023-04-06T13:13:37.611Z,48.10
2023-04-06T13:16:09.273Z,48.00
2023-04-06T13:18:39.510Z,47.10
2023-04-06T13:21:08.067Z,45.80
2023-04-06T13:23:36.276Z,46.50
2023-04-06T13:26:06.207Z,46.20
2023-04-06T13:28:35.491Z,45.80
2023-04-06T13:31:04.426Z,45.50
2023-04-06T13:33:33.647Z,45.10
2023-04-06T13:36:01.919Z,45.10
2023-04-06T13:38:30.267Z,44.60
2023-04-06T13:40:58.604Z,43.90
2023-04-06T13:43:27.844Z,44.00
2023-04-06T13:45:58.953Z,44.20
2023-04-06T13:48:27.269Z,43.90
2023-04-06T13:50:56.548Z,44.30
2023-04-06T13:53:24.457Z,43.60
2023-04-06T13:55:56.044Z,43.50
2023-04-06T13:58:23.939Z,43.40
2023-04-06T14:00:51.958Z,42.70
2023-04-06T14:03:20.355Z,42.70
2023-04-06T14:05:48.433Z,42.40
2023-04-06T14:08:17.612Z,43.20
2023-04-06T14:10:45.477Z,42.40
2023-04-06T14:13:13.362Z,42.30
2023-04-06T14:15:41.290Z,42.40
2023-04-06T14:18:09.890Z,43.10
2023-04-06T14:20:37.810Z,44.10
2023-04-06T14:23:05.987Z,44.50
2023-04-06T14:25:35.825Z,45.20
2023-04-06T14:28:03.923Z,44.90
2023-04-06T14:30:32.350Z,45.10
2023-04-06T14:33:01.286Z,45.20
2023-04-06T14:35:29.437Z,45.50
2023-04-06T14:37:59.090Z,45.80
2023-04-06T14:40:27.155Z,46.30
2023-04-06T14:42:57.478Z,45.80
2023-04-06T14:45:25.408Z,46.20
2023-04-06T14:47:53.316Z,46.10
2023-04-06T14:50:21.245Z,46.80
2023-04-06T14:52:49.089Z,46.10
2023-04-06T14:55:17.079Z,46.10
2023-04-06T14:57:45.008Z,46.30
2023-04-06T15:00:15.653Z,46.60
2023-04-06T15:02:44.200Z,46.70
2023-04-06T15:05:12.691Z,46.30
2023-04-06T15:07:40.508Z,46.30
2023-04-06T15:10:10.915Z,46.40
2023-04-06T15:12:40.562Z,46.50
2023-04-06T15:15:09.308Z,46.70
2023-04-06T15:17:38.662Z,46.90
2023-04-06T15:20:07.672Z,47.20
2023-04-06T15:22:35.576Z,47.50
2023-04-06T15:25:03.602Z,47.50
2023-04-06T15:27:31.612Z,48.00
2023-04-06T15:30:00.440Z,47.30
2023-04-06T15:32:28.496Z,47.00
2023-04-06T15:34:59.818Z,47.00
2023-04-06T15:37:29.073Z,47.10
2023-04-06T15:39:57.277Z,46.90
2023-04-06T15:42:26.286Z,46.80
2023-04-06T15:44:54.120Z,46.70
2023-04-06T15:47:22.079Z,46.50
2023-04-06T15:49:49.914Z,46.30
2023-04-06T15:52:18.232Z,46.80
2023-04-06T15:54:47.664Z,47.00
2023-04-06T15:57:15.557Z,47.20
2023-04-06T15:59:43.461Z,47.30
2023-04-06T16:02:11.375Z,47.50
2023-04-06T16:04:39.462Z,47.50
2023-04-06T16:07:07.488Z,48.40
2023-04-06T16:09:35.743Z,48.70
2023-04-06T16:12:05.566Z,49.10
2023-04-06T16:14:33.499Z,49.70
2023-04-06T16:17:01.308Z,50.10
2023-04-06T16:19:29.211Z,50.40
2023-04-06T16:21:57.684Z,50.30
2023-04-06T16:24:25.685Z,50.50
2023-04-06T16:26:53.652Z,50.90
2023-04-06T16:29:23.100Z,51.20
2023-04-06T16:31:51.021Z,51.70
2023-04-06T16:34:18.892Z,52.20
2023-04-06T16:36:46.808Z,52.10
2023-04-06T16:39:14.716Z,52.30
2023-04-06T16:41:42.598Z,52.80
2023-04-06T16:44:11.277Z,53.30
2023-04-06T16:46:41.394Z,53.50
2023-04-06T16:49:09.223Z,53.70
2023-04-06T16:51:37.637Z,53.50
2023-04-06T16:54:06.122Z,53.70
2023-04-06T16:56:34.085Z,54.10
2023-04-06T16:59:01.938Z,54.20
2023-04-06T17:01:30.416Z,54.50
2023-04-06T17:03:59.856Z,54.60
2023-04-06T17:06:28.077Z,55.10
2023-04-06T17:08:56.246Z,55.40
2023-04-06T17:11:32.823Z,55.40
2023-04-06T17:14:13.107Z,55.90
2023-04-06T17:16:41.120Z,56.30
2023-04-06T17:19:10.412Z,56.70
2023-04-06T17:21:40.003Z,57.10
2023-04-06T17:24:08.580Z,57.70
2023-04-06T17:26:36.388Z,58.30
2023-04-06T17:29:04.680Z,59.10
2023-04-06T17:31:32.505Z,59.90
2023-04-06T17:34:00.775Z,60.00
2023-04-06T17:36:30.003Z,59.90
2023-04-06T17:38:57.837Z,60.10
2023-04-06T17:41:26.551Z,60.10
2023-04-06T17:43:54.359Z,60.40
2023-04-06T17:46:24.650Z,60.90
2023-04-06T17:48:53.169Z,62.30
2023-04-06T17:51:21.405Z,63.20
2023-04-06T17:53:50.821Z,65.20
2023-04-06T17:56:18.780Z,68.20
2023-04-06T17:58:46.668Z,68.10
2023-04-06T18:01:14.611Z,69.30
2023-04-06T18:03:42.750Z,69.90
2023-04-06T18:06:11.818Z,70.60
2023-04-06T18:08:39.841Z,72.90
2023-04-06T18:11:11.725Z,75.80
2023-04-06T18:13:40.344Z,78.80
2023-04-06T18:16:08.514Z,81.50
2023-04-06T18:18:38.819Z,82.70
2023-04-06T18:21:07.617Z,85.70
2023-04-06T18:23:37.018Z,86.50
2023-04-06T18:26:05.583Z,88.00
2023-04-06T18:28:35.430Z,90.40
2023-04-06T18:31:03.395Z,90.70
2023-04-06T18:33:32.350Z,91.50
2023-04-06T18:36:00.272Z,92.60
2023-04-06T18:38:28.331Z,93.80
2023-04-06T18:40:56.284Z,95.30
2023-04-06T18:43:25.051Z,97.60
2023-04-06T18:45:54.263Z,98.10
2023-04-06T18:48:22.109Z,99.90
2023-04-06T18:50:53.805Z,99.90
2023-04-06T18:53:22.397Z,99.90
2023-04-06T18:55:51.452Z,99.90
2023-04-06T18:58:19.301Z,99.90
2023-04-06T19:00:47.173Z,99.90
2023-04-06T19:03:17.257Z,99.90
2023-04-06T19:05:46.573Z,99.90
2023-04-06T19:08:14.429Z,99.90
2023-04-06T19:10:42.501Z,99.90
2023-04-06T19:13:10.796Z,99.90
2023-04-06T19:15:41.962Z,99.90
2023-04-06T19:18:14.422Z,99.90
2023-04-06T19:20:43.609Z,99.90
2023-04-06T19:23:11.522Z,99.90
2023-04-06T19:25:40.601Z,99.90
2023-04-06T19:28:10.590Z,99.90
2023-04-06T19:30:39.016Z,99.90
2023-04-06T19:33:06.904Z,99.90
2023-04-06T19:35:35.051Z,99.90
2023-04-06T19:38:04.378Z,99.90
2023-04-06T19:40:32.266Z,99.90
2023-04-06T19:43:00.131Z,99.90
2023-04-06T19:45:29.727Z,99.90
2023-04-06T19:47:57.632Z,99.90
2023-04-06T19:50:25.718Z,99.90
2023-04-06T19:52:55.692Z,99.90
2023-04-06T19:55:24.889Z,99.90
2023-04-06T19:57:52.729Z,99.90
2023-04-06T20:00:20.877Z,99.90
2023-04-06T20:02:48.841Z,99.90
2023-04-06T20:05:16.995Z,99.90
2023-04-06T20:07:45.773Z,99.90
2023-04-06T20:10:14.338Z,99.90
2023-04-06T20:12:45.136Z,99.90
2023-04-06T20:15:13.812Z,99.90
2023-04-06T20:17:42.822Z,99.90
2023-04-06T20:20:12.579Z,99.90
2023-04-06T20:22:40.724Z,99.90
2023-04-06T20:25:10.380Z,99.90
2023-04-06T20:27:38.246Z,99.90
2023-04-06T20:30:08.973Z,99.90
2023-04-06T20:32:36.824Z,99.90
2023-04-06T20:35:04.958Z,99.90
2023-04-06T20:37:32.848Z,99.90
2023-04-06T20:40:01.019Z,99.90
2023-04-06T20:42:28.914Z,99.90
2023-04-06T20:44:56.994Z,99.90
2023-04-06T20:47:27.160Z,99.90
2023-04-06T20:49:55.370Z,99.90
2023-04-06T20:52:23.291Z,99.90
2023-04-06T20:54:51.467Z,99.90
2023-04-06T20:57:19.644Z,99.90
2023-04-06T20:59:47.557Z,99.90
2023-04-06T21:02:15.590Z,99.90
2023-04-06T21:04:45.485Z,99.90
2023-04-06T21:07:13.426Z,99.90
2023-04-06T21:09:42.033Z,99.90
2023-04-06T21:12:09.936Z,99.90
2023-04-06T21:14:38.030Z,99.90
2023-04-06T21:17:05.921Z,99.90
2023-04-06T21:19:33.759Z,99.90
2023-04-06T21:22:03.304Z,99.90
2023-04-06T21:24:31.152Z,99.90
2023-04-06T21:26:59.021Z,99.90
2023-04-06T21:29:26.910Z,99.90
2023-04-06T21:31:55.644Z,99.90
2023-04-06T21:34:23.588Z,99.90
2023-04-06T21:36:51.518Z,99.90
2023-04-06T21:39:20.762Z,99.90
2023-04-06T21:41:48.591Z,99.90
2023-04-06T21:44:16.516Z,99.90
2023-04-06T21:46:44.434Z,99.90
2023-04-06T21:49:12.318Z,99.90
2023-04-06T21:51:41.612Z,99.90
2023-04-06T21:54:09.440Z,99.90
2023-04-06T21:56:39.180Z,99.90
2023-04-06T21:59:07.129Z,99.90
